Time;durP1;ratioP1;P1;durP2;ratioP2;P2;SDS_P1;SDS_P2;PMS_P1;PMS_P2;Temp;Humidity;BMP_temperature;BMP_pressure;BME280_temperature;BME280_humidity;BME280_pressure;Samples;Min_cycle;Max_cycle;Signal;HPM_P1;HPM_P2
2024/01/30 00:00:31;;;;;;;1.83;1.52;;;;;;;3.62;100.00;101585.59;5046158;28;20112;-71
2024/01/30 00:02:57;;;;;;;0.82;0.82;;;;;;;3.53;99.91;101575.84;5027710;28;20026;-70
2024/01/30 00:05:22;;;;;;;3.63;2.28;;;;;;;3.52;99.89;101583.47;5045841;28;20017;-70
2024/01/30 00:07:47;;;;;;;3.13;2.90;;;;;;;3.53;100.00;101577.53;5045757;28;20018;-70
2024/01/30 00:10:13;;;;;;;2.05;1.95;;;;;;;3.50;99.96;101570.56;5045670;28;20017;-70
2024/01/30 00:12:38;;;;;;;3.25;1.90;;;;;;;3.50;99.52;101574.84;5027997;28;20025;-70
2024/01/30 00:15:04;;;;;;;5.25;2.90;;;;;;;3.46;99.90;101582.44;5045635;28;20052;-70
2024/01/30 00:17:30;;;;;;;1.80;1.70;;;;;;;3.57;99.15;101581.97;5027702;28;20035;-71
2024/01/30 00:19:56;;;;;;;1.08;1.05;;;;;;;3.60;98.42;101571.81;5045878;28;20049;-70
2024/01/30 00:22:21;;;;;;;1.63;1.52;;;;;;;3.47;99.34;101576.47;5045514;28;20025;-71
2024/01/30 00:24:47;;;;;;;1.38;1.27;;;;;;;3.44;99.46;101571.22;5045341;28;20026;-70
2024/01/30 00:27:12;;;;;;;5.60;2.60;;;;;;;3.44;100.00;101565.19;5045450;28;20030;-70
2024/01/30 00:29:37;;;;;;;2.20;0.95;;;;;;;3.40;100.00;101565.91;5045514;28;20120;-71
2024/01/30 00:32:03;;;;;;;7.63;3.00;;;;;;;3.43;100.00;101566.91;5045505;28;20025;-70
2024/01/30 00:34:28;;;;;;;2.17;2.00;;;;;;;3.34;100.00;101552.00;5045615;28;20045;-71
2024/01/30 00:36:53;;;;;;;2.40;2.15;;;;;;;3.29;100.00;101553.50;5045146;28;20597;-70
2024/01/30 00:39:19;;;;;;;1.75;1.65;;;;;;;3.39;100.00;101557.31;5045138;28;20136;-69
2024/01/30 00:41:45;;;;;;;3.83;3.50;;;;;;;3.32;100.00;101550.19;5045473;28;20046;-70
2024/01/30 00:44:10;;;;;;;3.75;2.88;;;;;;;3.39;100.00;101561.56;5045109;28;20034;-71
2024/01/30 00:46:36;;;;;;;6.18;5.00;;;;;;;3.33;100.00;101564.78;5044978;28;20025;-71
2024/01/30 00:49:01;;;;;;;2.10;1.60;;;;;;;3.31;100.00;101558.69;5045007;28;20036;-70
2024/01/30 00:51:29;;;;;;;3.60;2.05;;;;;;;3.35;100.00;101560.59;5044968;28;20036;-70
2024/01/30 00:53:55;;;;;;;2.28;1.33;;;;;;;3.43;100.00;101561.78;5045091;28;20048;-70
2024/01/30 00:56:20;;;;;;;19.60;3.55;;;;;;;3.45;100.00;101557.56;5044467;28;20049;-69
2024/01/30 00:58:46;;;;;;;2.55;1.58;;;;;;;3.49;100.00;101558.56;5044960;28;20076;-70
2024/01/30 01:01:11;;;;;;;4.00;3.67;;;;;;;3.49;100.00;101561.13;5044960;28;20037;-70
2024/01/30 01:03:36;;;;;;;3.13;2.92;;;;;;;3.51;100.00;101550.91;5044957;28;20056;-70
2024/01/30 01:06:02;;;;;;;1.85;1.60;;;;;;;3.37;100.00;101548.66;5044687;28;20108;-70
2024/01/30 01:08:27;;;;;;;1.98;1.88;;;;;;;3.40;100.00;101553.06;5044812;28;20029;-71
2024/01/30 01:10:52;;;;;;;3.92;2.47;;;;;;;3.38;100.00;101555.56;5026540;28;20465;-70
2024/01/30 01:13:18;;;;;;;1.27;0.95;;;;;;;3.40;100.00;101559.09;5044770;28;20022;-70
2024/01/30 01:15:43;;;;;;;10.52;3.20;;;;;;;3.46;100.00;101563.56;5044665;28;20174;-71
2024/01/30 01:18:08;;;;;;;2.35;1.63;;;;;;;3.47;100.00;101562.75;5044563;28;20036;-70
2024/01/30 01:20:34;;;;;;;6.05;2.92;;;;;;;3.43;100.00;101563.47;5044911;28;20024;-71
2024/01/30 01:22:59;;;;;;;3.75;1.35;;;;;;;3.45;100.00;101562.69;5044630;28;20477;-69
2024/01/30 01:25:24;;;;;;;5.82;2.95;;;;;;;3.46;100.00;101564.47;5044329;28;20048;-70
2024/01/30 01:27:52;;;;;;;11.02;4.32;;;;;;;3.50;100.00;101574.84;5044427;28;20490;-70
2024/01/30 01:30:21;;;;;;;2.90;2.55;;;;;;;3.52;100.00;101571.53;5044414;28;20048;-70
2024/01/30 01:32:54;;;;;;;9.48;3.92;;;;;;;3.59;100.00;101575.22;5026981;28;20473;-70
2024/01/30 01:35:24;;;;;;;6.70;5.03;;;;;;;3.59;100.00;101570.94;5044439;28;20025;-69
2024/01/30 01:37:54;;;;;;;4.22;3.90;;;;;;;3.58;100.00;101573.44;5026949;28;20421;-70
2024/01/30 01:40:22;;;;;;;10.13;3.63;;;;;;;3.59;100.00;101577.78;5044534;28;20033;-69
2024/01/30 01:42:49;;;;;;;5.75;1.98;;;;;;;3.60;100.00;101569.25;5044530;28;20021;-69
2024/01/30 01:45:14;;;;;;;1.42;1.30;;;;;;;3.62;100.00;101557.34;5044338;28;20048;-70
2024/01/30 01:47:40;;;;;;;5.30;4.80;;;;;;;3.60;100.00;101558.97;5010474;28;20022;-70
2024/01/30 01:50:05;;;;;;;2.55;2.03;;;;;;;3.58;100.00;101568.31;5044274;28;20026;-70
2024/01/30 01:52:31;;;;;;;8.85;4.70;;;;;;;3.54;100.00;101557.06;5044363;28;20021;-70
2024/01/30 01:54:56;;;;;;;3.00;2.80;;;;;;;3.54;100.00;101559.63;5023629;28;20045;-69
2024/01/30 01:57:22;;;;;;;3.13;2.92;;;;;;;3.56;100.00;101554.56;5028518;28;20514;-70
2024/01/30 01:59:47;;;;;;;3.42;2.67;;;;;;;3.58;100.00;101558.91;5028103;28;20085;-70
2024/01/30 02:02:17;;;;;;;3.08;2.85;;;;;;;3.51;100.00;101549.25;5027367;28;20074;-70
2024/01/30 02:04:43;;;;;;;4.63;3.40;;;;;;;3.55;100.00;101545.06;5026438;28;20025;-70
2024/01/30 02:07:08;;;;;;;1.65;1.55;;;;;;;3.61;100.00;101540.19;5028388;28;20410;-70
2024/01/30 02:09:34;;;;;;;3.30;2.22;;;;;;;3.56;100.00;101539.16;5028093;28;20022;-69
2024/01/30 02:12:00;;;;;;;6.63;3.60;;;;;;;3.60;100.00;101538.44;5027239;28;20465;-69
2024/01/30 02:14:25;;;;;;;9.57;3.60;;;;;;;3.53;100.00;101534.75;5028434;28;20021;-70
2024/01/30 02:16:50;;;;;;;5.03;1.98;;;;;;;3.60;100.00;101525.59;5028179;28;20064;-70
2024/01/30 02:19:16;;;;;;;1.58;1.20;;;;;;;3.64;100.00;101521.47;5028106;28;20031;-70
2024/01/30 02:21:41;;;;;;;1.83;1.70;;;;;;;3.62;100.00;101541.06;5026900;28;20049;-70
2024/01/30 02:24:06;;;;;;;3.47;3.17;;;;;;;3.56;100.00;101531.44;5027999;28;20033;-69
2024/01/30 02:26:32;;;;;;;3.90;3.30;;;;;;;3.57;100.00;101548.59;5027723;28;20053;-69
2024/01/30 02:28:57;;;;;;;5.82;4.75;;;;;;;3.52;100.00;101548.41;5026763;28;20041;-70
2024/01/30 02:31:25;;;;;;;2.70;2.33;;;;;;;3.54;100.00;101541.66;5027837;28;20034;-70
2024/01/30 02:33:50;;;;;;;3.70;2.10;;;;;;;3.54;100.00;101540.78;5028013;28;20026;-70
2024/01/30 02:36:15;;;;;;;9.82;3.10;;;;;;;3.58;100.00;101540.94;5027658;28;20022;-70
2024/01/30 02:38:41;;;;;;;11.23;3.40;;;;;;;3.64;100.00;101540.31;5027778;28;20029;-69
2024/01/30 02:41:06;;;;;;;7.93;5.03;;;;;;;3.62;100.00;101544.53;5026042;28;20109;-69
2024/01/30 02:43:32;;;;;;;6.25;3.20;;;;;;;3.56;100.00;101514.31;5025978;28;20130;-69
2024/01/30 02:45:59;;;;;;;5.80;3.70;;;;;;;3.64;100.00;101521.47;5027635;28;20053;-69
2024/01/30 02:48:24;;;;;;;3.90;2.95;;;;;;;3.62;100.00;101529.09;5027725;28;20021;-70
2024/01/30 02:50:50;;;;;;;3.63;3.10;;;;;;;3.62;100.00;101536.81;5026226;28;20033;-69
2024/01/30 02:53:15;;;;;;;4.72;2.78;;;;;;;3.58;100.00;101514.38;5027563;28;20112;-69
2024/01/30 02:55:41;;;;;;;6.30;1.95;;;;;;;3.60;100.00;101517.91;5040284;28;20041;-69
2024/01/30 02:58:06;;;;;;;20.25;1.85;;;;;;;3.63;100.00;101504.28;5047288;28;20104;-69
2024/01/30 03:00:32;;;;;;;1.90;1.80;;;;;;;3.68;100.00;101511.38;5046995;28;20026;-68
2024/01/30 03:02:57;;;;;;;8.23;3.60;;;;;;;3.71;100.00;101501.19;5029335;28;20028;-68
2024/01/30 03:05:22;;;;;;;4.97;1.77;;;;;;;3.70;100.00;101496.00;5046853;28;20028;-69
2024/01/30 03:07:48;;;;;;;1.88;1.77;;;;;;;3.76;100.00;101505.63;5045942;28;20049;-69
2024/01/30 03:10:13;;;;;;;2.40;2.03;;;;;;;3.62;100.00;101508.56;5046906;28;20021;-69
2024/01/30 03:12:38;;;;;;;2.95;2.35;;;;;;;3.58;100.00;101509.25;5046983;28;20049;-68
2024/01/30 03:15:04;;;;;;;3.88;2.15;;;;;;;3.57;100.00;101510.06;5046512;28;20411;-69
2024/01/30 03:17:29;;;;;;;2.78;2.58;;;;;;;3.58;100.00;101511.81;5046831;28;20025;-69
2024/01/30 03:19:55;;;;;;;4.50;3.10;;;;;;;3.60;100.00;101510.19;5046879;28;20022;-69
2024/01/30 03:22:20;;;;;;;14.57;4.03;;;;;;;3.64;100.00;101501.81;5029039;28;20041;-69
2024/01/30 03:24:45;;;;;;;1.33;1.23;;;;;;;3.59;100.00;101499.03;5046476;28;20036;-69
2024/01/30 03:27:11;;;;;;;7.22;3.00;;;;;;;3.59;100.00;101505.88;5046747;28;20022;-69
2024/01/30 03:29:36;;;;;;;3.65;1.63;;;;;;;3.63;100.00;101487.19;5046901;28;20083;-69
2024/01/30 03:32:03;;;;;;;1.35;1.27;;;;;;;3.69;100.00;101478.84;5046819;28;20350;-69
2024/01/30 03:34:29;;;;;;;1.67;1.25;;;;;;;3.71;100.00;101472.06;5028770;28;20029;-69
2024/01/30 03:36:54;;;;;;;6.88;2.70;;;;;;;3.68;100.00;101489.94;5046551;28;20108;-69
2024/01/30 03:39:19;;;;;;;2.65;2.22;;;;;;;3.57;100.00;101489.53;5046105;28;20055;-69
2024/01/30 03:41:45;;;;;;;1.33;1.17;;;;;;;3.57;100.00;101486.97;5046501;28;20033;-68
2024/01/30 03:44:11;;;;;;;1.50;1.40;;;;;;;3.61;100.00;101495.66;5046482;28;20030;-69
2024/01/30 03:46:36;;;;;;;4.35;2.20;;;;;;;3.57;100.00;101489.53;5046419;28;20029;-69
2024/01/30 03:49:01;;;;;;;3.25;2.92;;;;;;;3.62;100.00;101489.69;5046622;28;20037;-69
2024/01/30 03:51:27;;;;;;;3.60;2.53;;;;;;;3.61;100.00;101493.94;5046286;28;20025;-68
2024/01/30 03:53:52;;;;;;;1.10;1.10;;;;;;;3.59;100.00;101498.19;5046361;28;20031;-68
2024/01/30 03:56:17;;;;;;;4.13;3.15;;;;;;;3.59;100.00;101498.19;5046339;28;20052;-68
2024/01/30 03:58:43;;;;;;;9.63;2.40;;;;;;;3.56;100.00;101498.91;5045965;28;20056;-69
2024/01/30 04:01:13;;;;;;;2.78;2.17;;;;;;;3.57;100.00;101499.81;5046127;28;20041;-68
2024/01/30 04:03:39;;;;;;;7.13;4.47;;;;;;;3.51;100.00;101485.06;5028153;28;20537;-68
2024/01/30 04:06:04;;;;;;;2.88;2.70;;;;;;;3.55;100.00;101492.03;5028075;28;20048;-68
2024/01/30 04:08:30;;;;;;;2.92;2.17;;;;;;;3.58;100.00;101483.56;5045819;28;20021;-68
2024/01/30 04:10:55;;;;;;;2.92;1.45;;;;;;;3.64;100.00;101485.50;5045785;28;20036;-68
2024/01/30 04:13:20;;;;;;;5.25;4.07;;;;;;;3.63;100.00;101474.34;5045896;28;20028;-68
2024/01/30 04:15:46;;;;;;;2.67;1.65;;;;;;;3.67;100.00;101475.34;5045877;28;20028;-68
2024/01/30 04:18:11;;;;;;;7.95;3.08;;;;;;;3.65;100.00;101457.31;5045649;28;20028;-68
2024/01/30 04:20:36;;;;;;;3.22;2.85;;;;;;;3.62;100.00;101474.28;5045591;28;20071;-68
2024/01/30 04:23:02;;;;;;;3.13;2.92;;;;;;;3.65;100.00;101480.44;5045956;28;20022;-68
2024/01/30 04:25:27;;;;;;;5.53;4.00;;;;;;;3.54;100.00;101479.16;5045463;28;20022;-68
2024/01/30 04:27:53;;;;;;;10.30;1.65;;;;;;;3.61;100.00;101488.81;5045608;28;20025;-67
2024/01/30 04:30:18;;;;;;;3.13;2.85;;;;;;;3.57;100.00;101498.13;5045813;28;20061;-68
2024/01/30 04:32:44;;;;;;;12.43;4.78;;;;;;;3.55;100.00;101499.75;5045701;28;20026;-69
2024/01/30 04:35:09;;;;;;;6.03;3.35;;;;;;;3.62;100.00;101494.84;5045464;28;20081;-68
2024/01/30 04:37:34;;;;;;;3.50;3.20;;;;;;;3.64;100.00;101494.09;5045609;28;20025;-68
2024/01/30 04:40:00;;;;;;;7.90;3.47;;;;;;;3.68;100.00;101497.63;5045206;28;20068;-68
2024/01/30 04:42:25;;;;;;;57.42;5.55;;;;;;;3.66;100.00;101502.72;5045623;28;20017;-67
2024/01/30 04:44:51;;;;;;;9.73;2.92;;;;;;;3.70;100.00;101502.03;5045202;28;20048;-68
2024/01/30 04:47:16;;;;;;;4.85;2.08;;;;;;;3.72;100.00;101484.09;5045359;28;20029;-68
2024/01/30 04:49:42;;;;;;;0.65;0.65;;;;;;;3.83;100.00;101479.38;5045177;28;20017;-67
2024/01/30 04:52:08;;;;;;;5.03;2.28;;;;;;;3.73;100.00;101480.72;5027328;28;20045;-67
2024/01/30 04:54:34;;;;;;;2.42;1.52;;;;;;;3.63;100.00;101478.59;5023812;28;20483;-67
2024/01/30 04:57:00;;;;;;;1.63;1.52;;;;;;;3.58;100.00;101481.00;5025258;28;20022;-67
2024/01/30 04:59:25;;;;;;;17.67;1.27;;;;;;;3.49;100.00;101457.53;5025302;28;20026;-68
2024/01/30 05:01:51;;;;;;;4.60;1.85;;;;;;;3.49;100.00;101465.25;5024852;28;20017;-68
2024/01/30 05:04:16;;;;;;;0.88;0.88;;;;;;;3.49;100.00;101465.25;5025176;28;20042;-68
2024/01/30 05:06:41;;;;;;;2.83;2.17;;;;;;;3.41;100.00;101468.41;5023750;28;20053;-68
2024/01/30 05:09:07;;;;;;;1.25;1.15;;;;;;;3.51;100.00;101471.31;5025215;28;20036;-67
2024/01/30 05:11:40;;;;;;;8.70;4.28;;;;;;;3.39;100.00;101471.72;5025049;28;20032;-68
2024/01/30 05:14:06;;;;;;;22.08;1.73;;;;;;;3.45;100.00;101467.69;5024996;28;20040;-67
2024/01/30 05:16:32;;;;;;;5.82;3.60;;;;;;;3.42;100.00;101471.88;5025145;28;20103;-67
2024/01/30 05:18:58;;;;;;;5.55;2.10;;;;;;;3.42;100.00;101469.28;5023675;28;20017;-67
2024/01/30 05:21:23;;;;;;;2.15;2.05;;;;;;;3.41;100.00;101470.09;5023727;28;20108;-68
2024/01/30 05:23:48;;;;;;;1.52;1.23;;;;;;;3.41;100.00;101476.13;5025088;28;20017;-68
2024/01/30 05:26:14;;;;;;;3.17;1.80;;;;;;;3.34;100.00;101472.44;5024864;28;20026;-68
2024/01/30 05:28:39;;;;;;;2.03;1.92;;;;;;;3.33;100.00;101474.94;5024958;28;20029;-68
2024/01/30 05:31:04;;;;;;;3.88;2.97;;;;;;;3.37;100.00;101470.81;5024283;28;20025;-68
2024/01/30 05:33:30;;;;;;;1.20;0.80;;;;;;;3.39;100.00;101458.88;5024812;28;20030;-68
2024/01/30 05:35:55;;;;;;;1.17;0.95;;;;;;;3.43;100.00;101458.19;5024821;28;20025;-69
2024/01/30 05:38:21;;;;;;;5.60;0.95;;;;;;;3.39;100.00;101456.31;5024974;28;20018;-70
2024/01/30 05:40:46;;;;;;;2.80;2.60;;;;;;;3.39;100.00;101464.00;5024614;28;20032;-68
2024/01/30 05:43:12;;;;;;;0.90;0.90;;;;;;;3.38;100.00;101463.16;5024924;28;20028;-70
2024/01/30 05:45:37;;;;;;;0.52;0.52;;;;;;;3.37;100.00;101455.41;5024931;28;20022;-69
2024/01/30 05:48:03;;;;;;;4.00;1.63;;;;;;;3.31;100.00;101446.63;5024842;28;20423;-69
2024/01/30 05:50:28;;;;;;;2.55;2.25;;;;;;;3.32;100.00;101455.22;5024868;28;20113;-69
2024/01/30 05:52:54;;;;;;;1.77;1.60;;;;;;;3.31;100.00;101446.63;5024729;28;20030;-68
2024/01/30 05:55:19;;;;;;;0.77;0.77;;;;;;;3.31;100.00;101446.63;5034560;28;20056;-69
2024/01/30 05:57:44;;;;;;;12.45;2.00;;;;;;;3.30;100.00;101442.34;5026557;28;20041;-69
2024/01/30 06:00:10;;;;;;;1.23;0.93;;;;;;;3.30;100.00;101439.78;5043662;28;20041;-68
2024/01/30 06:02:36;;;;;;;1.20;1.10;;;;;;;3.32;100.00;101437.25;5043188;28;20022;-69
2024/01/30 06:05:01;;;;;;;3.05;2.75;;;;;;;3.34;100.00;101438.16;5043979;28;20049;-68
2024/01/30 06:07:26;;;;;;;2.47;2.05;;;;;;;3.33;100.00;101439.88;5044167;28;20033;-67
2024/01/30 06:09:52;;;;;;;4.25;2.55;;;;;;;3.31;100.00;101433.81;5026074;28;20032;-68
2024/01/30 06:12:17;;;;;;;9.52;2.97;;;;;;;3.31;100.00;101438.06;5044377;28;20053;-68
2024/01/30 06:14:42;;;;;;;1.08;1.08;;;;;;;3.32;100.00;101444.97;5043891;28;20021;-69
2024/01/30 06:17:11;;;;;;;2.28;1.75;;;;;;;3.34;100.00;101446.75;5044365;28;20025;-67
2024/01/30 06:19:38;;;;;;;2.83;2.60;;;;;;;3.35;100.00;101445.06;5044488;28;20076;-68
2024/01/30 06:22:04;;;;;;;1.40;1.30;;;;;;;3.35;100.00;101452.78;5044366;28;20486;-68
2024/01/30 06:24:29;;;;;;;5.38;2.13;;;;;;;3.35;100.00;101445.06;5044163;28;20040;-68
2024/01/30 06:26:55;;;;;;;1.95;1.75;;;;;;;3.31;100.00;101440.63;5044000;28;20025;-68
2024/01/30 06:29:20;;;;;;;3.55;3.25;;;;;;;3.38;100.00;101445.19;5026335;28;20021;-68
2024/01/30 06:31:46;;;;;;;1.23;1.13;;;;;;;3.37;100.00;101437.44;5044475;28;20017;-67
2024/01/30 06:34:11;;;;;;;0.98;0.95;;;;;;;3.34;100.00;101426.22;5044260;28;20096;-68
2024/01/30 06:36:37;;;;;;;1.90;1.42;;;;;;;3.34;100.00;101426.22;5044185;28;20026;-68
2024/01/30 06:39:03;;;;;;;1.83;1.48;;;;;;;3.32;100.00;101420.13;5044321;28;20022;-67
2024/01/30 06:41:28;;;;;;;5.32;1.17;;;;;;;3.30;100.00;101415.78;5045266;28;20524;-68
2024/01/30 06:43:54;;;;;;;1.70;1.40;;;;;;;3.37;100.00;101424.59;5013465;28;20045;-67
2024/01/30 06:46:19;;;;;;;0.70;0.68;;;;;;;3.25;100.00;101399.31;5029654;28;20089;-67
2024/01/30 06:48:44;;;;;;;2.03;1.85;;;;;;;3.31;100.00;101412.38;5047668;28;20032;-68
2024/01/30 06:51:10;;;;;;;1.55;1.45;;;;;;;3.32;100.00;101419.28;5047789;28;20030;-68
2024/01/30 06:53:36;;;;;;;8.23;4.00;;;;;;;3.38;100.00;101398.09;5047479;28;20014;-68
2024/01/30 06:56:01;;;;;;;1.02;1.02;;;;;;;3.47;100.00;101403.56;5047081;28;20053;-67
2024/01/30 06:58:26;;;;;;;1.75;1.65;;;;;;;3.50;100.00;101403.69;5047660;28;20025;-69
2024/01/30 07:00:52;;;;;;;2.97;2.33;;;;;;;3.35;100.00;101404.84;5047349;28;20029;-68
2024/01/30 07:03:17;;;;;;;1.75;1.65;;;;;;;3.46;100.00;101392.44;5047332;28;20033;-69
2024/01/30 07:05:43;;;;;;;2.42;1.45;;;;;;;3.45;100.00;101388.09;5047430;28;20022;-69
2024/01/30 07:08:08;;;;;;;1.67;1.40;;;;;;;3.37;100.00;101392.06;5047192;28;20035;-69
2024/01/30 07:10:33;;;;;;;1.63;1.52;;;;;;;3.52;100.00;101381.50;5047261;28;20125;-68
2024/01/30 07:13:00;;;;;;;0.70;0.70;;;;;;;3.52;100.00;101385.75;5047179;28;20021;-69
2024/01/30 07:15:26;;;;;;;0.75;0.75;;;;;;;3.45;100.00;101375.28;5047032;28;20445;-70
2024/01/30 07:17:51;;;;;;;2.38;2.17;;;;;;;3.32;100.00;101380.78;5047271;28;20021;-69
2024/01/30 07:20:19;;;;;;;4.43;3.40;;;;;;;3.44;100.00;101385.50;5046823;28;20113;-69
2024/01/30 07:22:45;;;;;;;1.52;1.42;;;;;;;3.42;100.00;101379.44;5046716;28;20025;-70
2024/01/30 07:25:10;;;;;;;4.25;3.90;;;;;;;3.29;100.00;101381.53;5045774;28;20104;-69
2024/01/30 07:27:36;;;;;;;2.17;1.58;;;;;;;3.35;100.00;101386.88;5027893;28;20102;-69
2024/01/30 07:30:02;;;;;;;8.75;4.47;;;;;;;3.31;100.00;101390.16;5047056;28;20060;-69
2024/01/30 07:32:27;;;;;;;1.02;0.93;;;;;;;3.34;100.00;101389.41;5046875;28;20049;-70
2024/01/30 07:34:52;;;;;;;1.45;1.35;;;;;;;3.31;100.00;101379.00;5046605;28;20021;-69
2024/01/30 07:37:18;;;;;;;3.72;3.25;;;;;;;3.38;100.00;101391.28;5046733;28;20032;-70
2024/01/30 07:39:43;;;;;;;2.40;2.20;;;;;;;3.39;100.00;101385.31;5046741;28;20029;-70
2024/01/30 07:42:09;;;;;;;1.40;1.30;;;;;;;3.50;100.00;101379.72;5046535;28;20049;-69
2024/01/30 07:44:34;;;;;;;2.20;2.03;;;;;;;3.29;100.00;101365.28;5046618;28;20465;-70
2024/01/30 07:46:59;;;;;;;2.80;1.38;;;;;;;3.34;100.00;101382.59;5046293;28;20167;-70
2024/01/30 07:49:25;;;;;;;2.50;1.83;;;;;;;3.34;100.00;101377.44;5028527;28;20493;-70
2024/01/30 07:51:50;;;;;;;0.65;0.65;;;;;;;3.36;100.00;101372.38;5046839;28;20044;-70
2024/01/30 07:54:16;;;;;;;4.15;2.15;;;;;;;3.59;100.00;101364.66;5045545;28;20013;-69
2024/01/30 07:56:41;;;;;;;2.25;2.08;;;;;;;3.47;100.00;101363.38;5046232;28;20029;-70
2024/01/30 07:59:10;;;;;;;5.15;2.25;;;;;;;3.49;100.00;101365.13;5046376;28;20017;-70
2024/01/30 08:01:36;;;;;;;1.13;1.05;;;;;;;3.38;100.00;101365.63;5046257;28;20026;-70
2024/01/30 08:04:01;;;;;;;0.95;0.73;;;;;;;3.65;100.00;101349.44;5046291;28;20025;-71
2024/01/30 08:06:26;;;;;;;1.80;1.60;;;;;;;3.40;100.00;101311.75;5046342;28;20025;-71
2024/01/30 08:08:53;;;;;;;2.33;1.73;;;;;;;3.54;100.00;101296.84;5046129;28;20013;-70
2024/01/30 08:11:25;;;;;;;4.75;2.35;;;;;;;3.53;100.00;101292.53;5046128;28;20033;-71
2024/01/30 08:13:50;;;;;;;;;;;;;;;3.45;100.00;101302.53;5046517;28;20017;-71
2024/01/30 08:16:15;;;;;;;1.33;1.23;;;;;;;3.46;100.00;101320.56;5046022;28;19931;-70
2024/01/30 08:18:41;;;;;;;1.25;1.25;;;;;;;3.40;100.00;101330.59;5028092;28;20033;-70
2024/01/30 08:21:06;;;;;;;3.05;0.73;;;;;;;3.39;100.00;101333.97;5027940;28;20033;-70
2024/01/30 08:23:32;;;;;;;1.48;1.40;;;;;;;3.43;100.00;101323.03;5045842;28;20033;-70
2024/01/30 08:25:57;;;;;;;0.82;0.82;;;;;;;3.49;100.00;101327.47;5027870;28;20304;-69
2024/01/30 08:28:22;;;;;;;1.27;1.23;;;;;;;3.63;100.00;101310.00;5045711;28;20036;-70
2024/01/30 08:30:47;;;;;;;1.65;1.48;;;;;;;3.48;100.00;101310.34;5045516;28;20026;-70
2024/01/30 08:33:13;;;;;;;2.63;2.42;;;;;;;3.63;100.00;101299.72;5027914;28;20028;-70
2024/01/30 08:35:38;;;;;;;1.55;1.45;;;;;;;3.62;100.00;101297.97;5045610;28;20060;-72
2024/01/30 08:38:04;;;;;;;1.38;1.25;;;;;;;3.69;100.00;101307.63;5045687;28;20022;-70
2024/01/30 08:40:30;;;;;;;7.20;4.53;;;;;;;3.54;100.00;101325.06;5045595;28;20493;-69
2024/01/30 08:42:55;;;;;;;4.50;4.10;;;;;;;3.52;100.00;101314.75;5045497;28;20093;-71
2024/01/30 08:45:21;;;;;;;2.40;2.20;;;;;;;3.55;100.00;101319.13;5045653;28;20021;-70
2024/01/30 08:47:46;;;;;;;4.78;3.83;;;;;;;3.64;100.00;101332.31;5045498;28;20049;-71
2024/01/30 08:50:12;;;;;;;6.70;3.35;;;;;;;3.63;100.00;101333.09;5045521;28;20030;-71
2024/01/30 08:52:37;;;;;;;4.57;3.03;;;;;;;3.71;100.00;101318.84;5045451;28;20031;-71
2024/01/30 08:55:03;;;;;;;5.53;3.67;;;;;;;3.71;100.00;101329.13;5045011;28;20045;-70
2024/01/30 08:57:30;;;;;;;4.18;2.50;;;;;;;3.77;100.00;101327.59;5045327;28;20089;-71
2024/01/30 08:59:56;;;;;;;4.32;2.95;;;;;;;3.81;100.00;101324.28;5027663;28;20018;-70
2024/01/30 09:02:21;;;;;;;2.97;2.33;;;;;;;3.86;100.00;101321.88;5045200;28;20025;-71
2024/01/30 09:04:46;;;;;;;3.15;2.88;;;;;;;3.81;100.00;101302.06;5044316;28;20022;-71
2024/01/30 09:07:13;;;;;;;4.70;4.05;;;;;;;3.85;100.00;101310.72;5045094;28;20025;-70
2024/01/30 09:09:40;;;;;;;2.55;2.38;;;;;;;3.87;100.00;101305.63;5045147;28;20083;-69
2024/01/30 09:12:09;;;;;;;1.98;1.88;;;;;;;4.05;100.00;101300.25;5027058;28;20638;-70
2024/01/30 09:14:35;;;;;;;1.20;0.85;;;;;;;4.06;100.00;101305.44;5027097;28;20021;-69
2024/01/30 09:17:00;;;;;;;4.47;1.85;;;;;;;3.94;100.00;101289.63;5044995;28;20395;-69
2024/01/30 09:19:25;;;;;;;2.15;2.03;;;;;;;4.04;100.00;101296.78;5044864;28;20025;-70
2024/01/30 09:21:51;;;;;;;3.53;2.60;;;;;;;4.02;100.00;101306.16;5045097;28;20021;-70
2024/01/30 09:24:16;;;;;;;2.20;1.95;;;;;;;3.91;100.00;101295.53;5044912;28;20048;-69
2024/01/30 09:26:41;;;;;;;2.80;2.05;;;;;;;4.00;100.00;101296.66;5044978;28;20026;-70
2024/01/30 09:29:07;;;;;;;3.85;3.35;;;;;;;3.90;100.00;101277.50;5044845;28;20017;-70
2024/01/30 09:31:32;;;;;;;3.33;3.08;;;;;;;3.88;100.00;101297.13;5045014;28;20423;-71
2024/01/30 09:33:57;;;;;;;1.77;1.67;;;;;;;3.86;100.00;101302.22;5027249;28;20100;-70
2024/01/30 09:36:23;;;;;;;13.15;3.60;;;;;;;3.81;100.00;101296.91;5044855;28;20025;-70
2024/01/30 09:38:48;;;;;;;11.38;3.72;;;;;;;3.84;100.00;101288.44;5045097;28;20480;-69
2024/01/30 09:41:15;;;;;;;2.80;2.53;;;;;;;4.19;100.00;101291.31;5026812;28;20045;-70
2024/01/30 09:43:48;;;;;;;3.40;1.58;;;;;;;4.09;100.00;101271.25;5044804;28;20021;-69
2024/01/30 09:46:16;;;;;;;1.65;1.17;;;;;;;4.11;100.00;101290.16;5027106;28;20025;-69
2024/01/30 09:48:45;;;;;;;6.03;2.20;;;;;;;4.06;100.00;101284.00;5044905;28;20056;-69
2024/01/30 09:51:11;;;;;;;0.80;0.80;;;;;;;3.96;100.00;101288.84;5044870;28;20040;-70
2024/01/30 09:53:37;;;;;;;2.60;2.40;;;;;;;3.85;100.00;101295.31;5026753;28;20025;-69
2024/01/30 09:56:04;;;;;;;4.78;1.05;;;;;;;3.97;100.00;101274.31;5023505;28;20046;-69
2024/01/30 09:58:29;;;;;;;1.48;1.38;;;;;;;3.99;100.00;101282.06;5025006;28;20033;-69
2024/01/30 10:00:54;;;;;;;3.78;3.50;;;;;;;3.84;100.00;101288.44;5023529;28;20108;-69
2024/01/30 10:03:20;;;;;;;9.93;2.83;;;;;;;3.80;100.00;101284.03;5023514;28;20049;-70
2024/01/30 10:05:54;;;;;;;1.77;1.67;;;;;;;3.87;100.00;101283.41;5024739;28;20022;-69
2024/01/30 10:08:20;;;;;;;3.95;2.47;;;;;;;3.82;100.00;101297.78;5025059;28;20026;-69
2024/01/30 10:10:46;;;;;;;12.15;4.95;;;;;;;3.89;100.00;101304.00;5024728;28;20077;-70
2024/01/30 10:13:12;;;;;;;7.20;3.00;;;;;;;3.89;100.00;101301.44;5023530;28;20033;-70
2024/01/30 10:15:38;;;;;;;10.18;4.47;;;;;;;3.93;100.00;101305.88;5023437;28;20026;-69
2024/01/30 10:18:06;;;;;;;2.10;1.50;;;;;;;4.02;100.00;101298.47;5028552;28;20056;-70
2024/01/30 10:20:32;;;;;;;5.65;2.15;;;;;;;4.04;100.00;101283.94;5028561;28;20037;-70
2024/01/30 10:22:57;;;;;;;1.88;1.77;;;;;;;4.15;100.00;101270.59;5028453;28;20022;-70
2024/01/30 10:25:23;;;;;;;2.92;2.70;;;;;;;4.25;100.00;101279.47;5028122;28;20031;-69
2024/01/30 10:27:54;;;;;;;6.82;2.53;;;;;;;4.08;100.00;101295.22;5028518;28;20030;-69
2024/01/30 10:30:19;;;;;;;4.70;4.13;;;;;;;4.03;100.00;101314.72;5028378;28;20079;-70
2024/01/30 10:32:44;;;;;;;2.25;1.95;;;;;;;3.98;100.00;101296.59;5050747;23;20057;-64
2024/01/30 10:35:10;;;;;;;7.68;3.17;;;;;;;4.06;100.00;101304.56;5029354;28;20018;-64
2024/01/30 10:37:35;;;;;;;21.52;3.47;;;;;;;4.05;100.00;101284.84;5048105;28;20040;-64
2024/01/30 10:40:05;;;;;;;1.73;1.63;;;;;;;4.20;100.00;101290.47;5048045;28;20264;-64
2024/01/30 10:42:32;;;;;;;7.72;5.18;;;;;;;4.19;100.00;101292.97;5030585;28;20030;-64
2024/01/30 10:45:18;;;;;;;3.50;2.30;;;;;;;4.21;100.00;101286.22;5047897;28;20026;-64
2024/01/30 10:47:49;;;;;;;2.35;2.15;;;;;;;4.23;100.00;101284.56;5048056;28;20105;-64
2024/01/30 10:50:15;;;;;;;5.68;1.98;;;;;;;4.22;100.00;101286.25;5048045;28;20037;-63
2024/01/30 10:52:42;;;;;;;8.10;3.55;;;;;;;4.23;100.00;101279.44;5030056;28;20030;-64
2024/01/30 10:55:08;;;;;;;4.20;2.58;;;;;;;4.30;100.00;101270.19;5053876;23;20054;-69
2024/01/30 10:57:37;;;;;;;21.33;4.18;;;;;;;4.27;100.00;101264.94;5028486;28;20457;-68
2024/01/30 11:00:10;;;;;;;2.50;2.33;;;;;;;4.21;100.00;101256.25;5046973;28;20080;-68
2024/01/30 11:02:37;;;;;;;2.00;1.90;;;;;;;4.31;100.00;101252.25;5030202;28;20029;-69
2024/01/30 11:05:04;;;;;;;7.68;3.05;;;;;;;4.27;100.00;101247.84;5047527;28;20017;-69
2024/01/30 11:07:30;;;;;;;2.30;1.35;;;;;;;4.36;100.00;101234.38;5029584;28;20045;-69
2024/01/30 11:09:58;;;;;;;0.47;0.47;;;;;;;4.38;100.00;101226.75;5047478;28;20084;-69
2024/01/30 11:12:25;;;;;;;0.50;0.50;;;;;;;4.43;100.00;101218.34;5047217;28;20029;-69
2024/01/30 11:15:05;;;;;;;1.13;1.13;;;;;;;4.36;100.00;101218.97;5047443;28;20024;-69
2024/01/30 11:17:45;;;;;;;0.40;0.40;;;;;;;4.15;100.00;101201.19;5029341;28;20025;-69